MSC Mandraki — SZUH — position and weather

sailwx.info

Track history (hours):
 
Tides and Currents Weather Stations Pressure Air Temp Water Temp Dewpoint Dewpoint Depression Visibility Wind Speed Wind Dir Waves Ship Positions

MSC Mandraki

Last reported at 2016-Jul-01 00:34 UTC. Time now 2016-Jul-01 00:59 UTC.
Position N 36°52' E 002°00'.

Length 294 m; draft 13.2 m.

Type: Ship. MMSI: 240265000.

Date/timePositionNaut miles runAvg speedWind from/ knotsBaromVisibWave heightAir tempDewpointWater temp
2016-Jul-01 00:34N 36°52' E 002°00'1919.1
2016-Jun-30 23:33N 36°49' E 001°36'1919.2
2016-Jun-30 22:33N 36°46' E 001°13'1918.6
2016-Jun-30 21:33N 36°43' E 000°50'1818.0
2016-Jun-30 20:33N 36°40' E 000°28'1818.0
2016-Jun-30 19:33N 36°36' E 000°06'1918.6
2016-Jun-30 18:34N 36°33' W 000°17'1918.6
2016-Jun-30 17:34N 36°30' W 000°40'1918.4
2016-Jun-30 16:33N 36°27' W 001°03'1818.2
2016-Jun-30 15:32N 36°24' W 001°25'2418.0
2016-Jun-30 14:12N 36°20' W 001°55'16318.8
2016-Jun-30 05:32N 35°58' W 005°15'2320.3
2016-Jun-30 04:22N 35°54' W 005°43'8018.6
2016-Jun-30 00:04N 36°09' W 007°21'918.7
2016-Jun-29 23:33N 36°12' W 007°32'1818.4
2016-Jun-29 22:33N 36°17' W 007°54'2018.3
2016-Jun-29 21:30N 36°22' W 008°17'1718.6
2016-Jun-29 20:33N 36°27' W 008°38'1818.4
2016-Jun-29 19:34N 36°30' W 009°00'1817.8
2016-Jun-29 18:33N 36°36' W 009°21'1817.7
2016-Jun-29 17:34N 36°50' W 009°35'1918.6
2016-Jun-29 16:34N 37°08' W 009°40'1919.0
2016-Jun-29 15:33N 37°27' W 009°45'1919.0
2016-Jun-29 14:33N 37°45' W 009°50'1919.0
2016-Jun-29 13:33N 38°04' W 009°56'1919.3
2016-Jun-29 12:33N 38°23' W 010°01'1918.6
2016-Jun-29 11:33N 38°41' W 010°07'1918.7
2016-Jun-29 10:33N 38°60' W 010°06'1918.7
2016-Jun-29 09:33N 39°18' W 010°05'1919.1
2016-Jun-29 08:33N 39°37' W 010°05'2418.9
2016-Jun-29 07:18N 40°01' W 010°07'1518.9
2016-Jun-29 06:30N 40°16' W 010°08'53617.8
2016-Jun-28 00:25N 48°42' W 005°57'1618.6
2016-Jun-27 23:33N 48°55' W 005°44'1818.0
2016-Jun-27 22:33N 49°05' W 005°22'9118.1
2016-Jun-27 17:32N 49°50' W 003°20'1919.1
2016-Jun-27 16:33N 49°59' W 002°54'1918.2
2016-Jun-27 15:31N 50°05' W 002°27'2316.7
2016-Jun-27 14:10N 50°09' W 001°52'2515.3
2016-Jun-27 12:32N 50°15' W 001°14'1515.6
2016-Jun-27 11:33N 50°20' W 000°51'2017.0
2016-Jun-27 10:21N 50°25' W 000°20'1518.3
2016-Jun-27 09:33N 50°29' E 000°02'1918.9
2016-Jun-27 08:33N 50°36' E 000°30'3617.9
2016-Jun-27 06:33N 50°58' E 001°14'1615.8
2016-Jun-27 05:33N 51°08' E 001°34'1515.1
2016-Jun-27 04:34N 51°19' E 001°50'1413.5
2016-Jun-27 03:33N 51°22' E 002°12'1616.1
2016-Jun-27 02:33N 51°23' E 002°37'1313.3
2016-Jun-27 01:34N 51°25' E 002°58'1514.7
2016-Jun-27 00:33N 51°24' E 003°22'1111.3
2016-Jun-26 23:33N 51°27' E 003°40'1111.2
2016-Jun-26 22:33N 51°24' E 003°57'1010.3
2016-Jun-26 21:33N 51°22' E 004°13'3 2.7
2016-Jun-26 20:34N 51°21' E 004°17'2 1.9
2016-Jun-26 19:33N 51°20' E 004°20'0 0.1
2016-Jun-26 18:33N 51°20' E 004°20'0 0.0
2016-Jun-26 17:33N 51°19' E 004°20'0 0.0
2016-Jun-26 16:33N 51°19' E 004°20'0 0.0
2016-Jun-26 15:33N 51°19' E 004°20'0 0.0
2016-Jun-26 14:33N 51°19' E 004°20'0 0.0
2016-Jun-26 13:30N 51°19' E 004°20'0 0.0
2016-Jun-26 12:33N 51°19' E 004°20'0 0.0
2016-Jun-26 11:33N 51°20' E 004°20'0 0.0
2016-Jun-26 10:33N 51°20' E 004°20'0 0.0
2016-Jun-26 09:33N 51°19' E 004°20'0 0.0
2016-Jun-26 08:33N 51°20' E 004°20'0 0.0
2016-Jun-26 07:33N 51°19' E 004°20'0 0.0
2016-Jun-26 06:33N 51°19' E 004°20'0 0.0
2016-Jun-26 05:33N 51°19' E 004°20'0 0.0
2016-Jun-26 04:33N 51°19' E 004°20'0 0.0
2016-Jun-26 03:33N 51°20' E 004°20'0 0.0
2016-Jun-26 02:33N 51°19' E 004°20'0 0.0
2016-Jun-26 01:30N 51°20' E 004°20'0 0.0
2016-Jun-26 00:33N 51°19' E 004°20'0 0.0
2016-Jun-25 23:33N 51°19' E 004°20'0 0.0
2016-Jun-25 22:33N 51°19' E 004°20'0 0.0
2016-Jun-25 21:33N 51°19' E 004°20'0 0.0
2016-Jun-25 20:30N 51°19' E 004°20'0 0.0
2016-Jun-25 19:33N 51°20' E 004°20'0 0.0
2016-Jun-25 18:33N 51°19' E 004°20'0 0.0
2016-Jun-25 17:33N 51°19' E 004°20'0 0.0
2016-Jun-25 16:33N 51°19' E 004°20'0 0.0
2016-Jun-25 15:33N 51°20' E 004°20'0 0.0
2016-Jun-25 14:33N 51°20' E 004°20'0 0.0
2016-Jun-25 13:33N 51°19' E 004°20'0 0.0
2016-Jun-25 12:33N 51°19' E 004°20'0 0.0
2016-Jun-25 11:33N 51°20' E 004°20'0 0.0
2016-Jun-25 10:33N 51°19' E 004°20'0 0.0
2016-Jun-25 09:33N 51°19' E 004°20'0 0.0
2016-Jun-25 08:33N 51°19' E 004°20'0 0.0
2016-Jun-25 07:33N 51°20' E 004°20'0 0.0
2016-Jun-25 06:33N 51°20' E 004°20'0 0.0
2016-Jun-25 05:33N 51°19' E 004°20'0 0.0
2016-Jun-25 04:33N 51°19' E 004°20'0 0.0
2016-Jun-25 03:33N 51°20' E 004°20'0 0.0
2016-Jun-25 02:30N 51°19' E 004°20'0 0.0
2016-Jun-25 01:33N 51°19' E 004°20'0 0.0
2016-Jun-25 00:33N 51°20' E 004°20'0 0.0
2016-Jun-24 23:30N 51°19' E 004°20'1 1.1
2016-Jun-24 22:33N 51°20' E 004°18'1 1.1
2016-Jun-24 21:31N 51°21' E 004°17'1 1.1
2016-Jun-24 20:33N 51°21' E 004°15'7 6.8
2016-Jun-24 19:33N 51°22' E 004°05'6 5.9
2016-Jun-24 18:33N 51°22' E 003°55'10 9.9
2016-Jun-24 17:34N 51°26' E 003°41'1010.3
2016-Jun-24 16:33N 51°31' E 003°26'1313.3
2016-Jun-24 15:33N 51°43' E 003°16'7 7.4
2016-Jun-24 14:34N 51°50' E 003°12'1 0.5
2016-Jun-24 13:34N 51°49' E 003°12'1 1.3
2016-Jun-24 12:33N 51°49' E 003°14'1 0.8
2016-Jun-24 11:27N 51°49' E 003°16'1 0.8
2016-Jun-24 10:25N 51°49' E 003°17'2 1.8
2016-Jun-24 09:33N 51°51' E 003°18'1414.0
2016-Jun-24 08:33N 52°02' E 003°30'1515.4
2016-Jun-24 07:33N 52°03' E 003°55'8 2.6
2016-Jun-24 04:33N 51°58' E 004°04'0 0.0
2016-Jun-24 03:33N 51°58' E 004°04'0 0.0
2016-Jun-24 02:33N 51°58' E 004°04'0 0.0
2016-Jun-24 01:33N 51°58' E 004°04'0 0.0
2016-Jun-24 00:33N 51°58' E 004°04'0 0.0
2016-Jun-23 23:33N 51°58' E 004°04'0 0.0
2016-Jun-23 22:33N 51°58' E 004°04'0 0.0
2016-Jun-23 21:33N 51°58' E 004°04'0 0.0
2016-Jun-23 20:33N 51°58' E 004°04'0 0.0
2016-Jun-23 19:33N 51°58' E 004°04'0 0.0
2016-Jun-23 18:33N 51°58' E 004°04'0 0.0
2016-Jun-23 17:33N 51°58' E 004°04'0 0.0
2016-Jun-23 16:33N 51°58' E 004°04'0 0.4
2016-Jun-23 15:33N 51°58' E 004°04'1010.2
2016-Jun-23 14:34N 52°00' E 003°48'3716.2
2016-Jun-23 12:16N 51°53' E 002°49'1318.1
2016-Jun-23 11:33N 51°53' E 002°28'1716.8
2016-Jun-23 10:33N 51°51' E 002°01'1615.5
2016-Jun-23 09:33N 51°52' E 001°36'1110.7
2016-Jun-23 08:34N 51°55' E 001°20'3 2.8
2016-Jun-23 07:33N 51°58' E 001°17'0 0.0
2016-Jun-23 05:33N 51°58' E 001°17'0 0.0
2016-Jun-23 04:33N 51°58' E 001°17'0 0.0
2016-Jun-23 03:33N 51°58' E 001°17'0 0.0
2016-Jun-23 02:33N 51°58' E 001°17'0 0.0
2016-Jun-23 01:33N 51°58' E 001°17'0 0.0
2016-Jun-23 00:33N 51°58' E 001°17'0 0.0
2016-Jun-22 23:33N 51°58' E 001°17'0 0.0
2016-Jun-22 22:33N 51°58' E 001°17'0 0.0
2016-Jun-22 21:33N 51°58' E 001°17'0 0.0
2016-Jun-22 20:33N 51°58' E 001°17'0 0.0
2016-Jun-22 19:33N 51°58' E 001°17'0 0.0
2016-Jun-22 18:33N 51°58' E 001°17'0 0.0
2016-Jun-22 17:33N 51°58' E 001°17'0 0.0
2016-Jun-22 16:33N 51°58' E 001°17'0 0.0
2016-Jun-22 15:33N 51°58' E 001°17'0 0.0
2016-Jun-22 14:33N 51°58' E 001°17'0 0.0
2016-Jun-22 13:33N 51°58' E 001°17'1 1.4
2016-Jun-22 12:33N 51°57' E 001°19'10 9.9
2016-Jun-22 11:34N 51°53' E 001°34'6 6.1
2016-Jun-22 10:33N 51°51' E 001°43'2 1.5
2016-Jun-22 09:33N 51°53' E 001°43'1 0.8
2016-Jun-22 08:33N 51°52' E 001°43'1 1.0
2016-Jun-22 07:33N 51°53' E 001°43'0 0.1
2016-Jun-22 06:33N 51°53' E 001°43'2 1.5
2016-Jun-22 05:33N 51°54' E 001°45'1 1.1
2016-Jun-22 04:33N 51°53' E 001°44'0 0.2
2016-Jun-22 03:33N 51°53' E 001°44'3 2.8
2016-Jun-22 02:33N 51°51' E 001°47'1515.0
2016-Jun-22 01:33N 51°36' E 001°50'1414.1
2016-Jun-22 00:33N 51°25' E 002°04'1514.7
2016-Jun-21 23:34N 51°13' E 001°50'1716.9
2016-Jun-21 22:34N 51°01' E 001°32'1615.5
2016-Jun-21 21:33N 50°46' E 001°22'1715.5
2016-Jun-21 20:28N 50°34' E 001°04'1715.7
2016-Jun-21 19:21N 50°27' E 000°39'1315.8
2016-Jun-21 18:33N 50°24' E 000°20'1515.2
2016-Jun-21 17:33N 50°20' W 000°03'1515.1
2016-Jun-21 16:33N 50°15' W 000°26'1515.3
2016-Jun-21 15:33N 50°11' W 000°48'1714.6
2016-Jun-21 14:24N 50°06' W 001°14'2913.9
2016-Jun-21 12:18N 49°58' W 001°57'2715.0
2016-Jun-21 10:32N 49°51' W 002°37'1615.9
2016-Jun-21 09:33N 49°45' W 002°59'1616.1
2016-Jun-21 08:33N 49°38' W 003°21'2016.0
2016-Jun-21 07:18N 49°28' W 003°49'1316.2
2016-Jun-21 06:30N 49°22' W 004°06'3316.4
2016-Jun-21 04:31N 49°05' W 004°49'2016.4
2016-Jun-21 03:17N 48°55' W 005°15'1216.2
2016-Jun-21 02:33N 48°49' W 005°31'  
Track history (hours):
 
Tides and Currents Weather Stations Pressure Air Temp Water Temp Dewpoint Dewpoint Depression Visibility Wind Speed Wind Dir Waves Ship Positions

MSC Mandraki

Last reported at 2016-Jul-01 00:34 UTC. Time now 2016-Jul-01 00:59 UTC.
Position N 36°52' E 002°00'.

Length 294 m; draft 13.2 m.

Type: Ship. MMSI: 240265000.

Date/timePositionNaut miles runAvg speedWind from/ knotsBaromVisibWave heightAir tempDewpointWater temp
2016-Jul-01 00:34N 36°52' E 002°00'1919.1
2016-Jun-30 23:33N 36°49' E 001°36'1919.2
2016-Jun-30 22:33N 36°46' E 001°13'1918.6
2016-Jun-30 21:33N 36°43' E 000°50'1818.0
2016-Jun-30 20:33N 36°40' E 000°28'1818.0
2016-Jun-30 19:33N 36°36' E 000°06'1918.6
2016-Jun-30 18:34N 36°33' W 000°17'1918.6
2016-Jun-30 17:34N 36°30' W 000°40'1918.4
2016-Jun-30 16:33N 36°27' W 001°03'1818.2
2016-Jun-30 15:32N 36°24' W 001°25'2418.0
2016-Jun-30 14:12N 36°20' W 001°55'16318.8
2016-Jun-30 05:32N 35°58' W 005°15'2320.3
2016-Jun-30 04:22N 35°54' W 005°43'8018.6
2016-Jun-30 00:04N 36°09' W 007°21'918.7
2016-Jun-29 23:33N 36°12' W 007°32'1818.4
2016-Jun-29 22:33N 36°17' W 007°54'2018.3
2016-Jun-29 21:30N 36°22' W 008°17'1718.6
2016-Jun-29 20:33N 36°27' W 008°38'1818.4
2016-Jun-29 19:34N 36°30' W 009°00'1817.8
2016-Jun-29 18:33N 36°36' W 009°21'1817.7
2016-Jun-29 17:34N 36°50' W 009°35'1918.6
2016-Jun-29 16:34N 37°08' W 009°40'1919.0
2016-Jun-29 15:33N 37°27' W 009°45'1919.0
2016-Jun-29 14:33N 37°45' W 009°50'1919.0
2016-Jun-29 13:33N 38°04' W 009°56'1919.3
2016-Jun-29 12:33N 38°23' W 010°01'1918.6
2016-Jun-29 11:33N 38°41' W 010°07'1918.7
2016-Jun-29 10:33N 38°60' W 010°06'1918.7
2016-Jun-29 09:33N 39°18' W 010°05'1919.1
2016-Jun-29 08:33N 39°37' W 010°05'2418.9
2016-Jun-29 07:18N 40°01' W 010°07'1518.9
2016-Jun-29 06:30N 40°16' W 010°08'53617.8
2016-Jun-28 00:25N 48°42' W 005°57'1618.6
2016-Jun-27 23:33N 48°55' W 005°44'1818.0
2016-Jun-27 22:33N 49°05' W 005°22'9118.1
2016-Jun-27 17:32N 49°50' W 003°20'1919.1
2016-Jun-27 16:33N 49°59' W 002°54'1918.2
2016-Jun-27 15:31N 50°05' W 002°27'2316.7
2016-Jun-27 14:10N 50°09' W 001°52'2515.3
2016-Jun-27 12:32N 50°15' W 001°14'1515.6
2016-Jun-27 11:33N 50°20' W 000°51'2017.0
2016-Jun-27 10:21N 50°25' W 000°20'1518.3
2016-Jun-27 09:33N 50°29' E 000°02'1918.9
2016-Jun-27 08:33N 50°36' E 000°30'3617.9
2016-Jun-27 06:33N 50°58' E 001°14'1615.8
2016-Jun-27 05:33N 51°08' E 001°34'1515.1
2016-Jun-27 04:34N 51°19' E 001°50'1413.5
2016-Jun-27 03:33N 51°22' E 002°12'1616.1
2016-Jun-27 02:33N 51°23' E 002°37'1313.3
2016-Jun-27 01:34N 51°25' E 002°58'1514.7
2016-Jun-27 00:33N 51°24' E 003°22'1111.3
2016-Jun-26 23:33N 51°27' E 003°40'1111.2
2016-Jun-26 22:33N 51°24' E 003°57'1010.3
2016-Jun-26 21:33N 51°22' E 004°13'3 2.7
2016-Jun-26 20:34N 51°21' E 004°17'2 1.9
2016-Jun-26 19:33N 51°20' E 004°20'0 0.1
2016-Jun-26 18:33N 51°20' E 004°20'0 0.0
2016-Jun-26 17:33N 51°19' E 004°20'0 0.0
2016-Jun-26 16:33N 51°19' E 004°20'0 0.0
2016-Jun-26 15:33N 51°19' E 004°20'0 0.0
2016-Jun-26 14:33N 51°19' E 004°20'0 0.0
2016-Jun-26 13:30N 51°19' E 004°20'0 0.0
2016-Jun-26 12:33N 51°19' E 004°20'0 0.0
2016-Jun-26 11:33N 51°20' E 004°20'0 0.0
2016-Jun-26 10:33N 51°20' E 004°20'0 0.0
2016-Jun-26 09:33N 51°19' E 004°20'0 0.0
2016-Jun-26 08:33N 51°20' E 004°20'0 0.0
2016-Jun-26 07:33N 51°19' E 004°20'0 0.0
2016-Jun-26 06:33N 51°19' E 004°20'0 0.0
2016-Jun-26 05:33N 51°19' E 004°20'0 0.0
2016-Jun-26 04:33N 51°19' E 004°20'0 0.0
2016-Jun-26 03:33N 51°20' E 004°20'0 0.0
2016-Jun-26 02:33N 51°19' E 004°20'0 0.0
2016-Jun-26 01:30N 51°20' E 004°20'0 0.0
2016-Jun-26 00:33N 51°19' E 004°20'0 0.0
2016-Jun-25 23:33N 51°19' E 004°20'0 0.0
2016-Jun-25 22:33N 51°19' E 004°20'0 0.0
2016-Jun-25 21:33N 51°19' E 004°20'0 0.0
2016-Jun-25 20:30N 51°19' E 004°20'0 0.0
2016-Jun-25 19:33N 51°20' E 004°20'0 0.0
2016-Jun-25 18:33N 51°19' E 004°20'0 0.0
2016-Jun-25 17:33N 51°19' E 004°20'0 0.0
2016-Jun-25 16:33N 51°19' E 004°20'0 0.0
2016-Jun-25 15:33N 51°20' E 004°20'0 0.0
2016-Jun-25 14:33N 51°20' E 004°20'0 0.0
2016-Jun-25 13:33N 51°19' E 004°20'0 0.0
2016-Jun-25 12:33N 51°19' E 004°20'0 0.0
2016-Jun-25 11:33N 51°20' E 004°20'0 0.0
2016-Jun-25 10:33N 51°19' E 004°20'0 0.0
2016-Jun-25 09:33N 51°19' E 004°20'0 0.0
2016-Jun-25 08:33N 51°19' E 004°20'0 0.0
2016-Jun-25 07:33N 51°20' E 004°20'0 0.0
2016-Jun-25 06:33N 51°20' E 004°20'0 0.0
2016-Jun-25 05:33N 51°19' E 004°20'0 0.0
2016-Jun-25 04:33N 51°19' E 004°20'0 0.0
2016-Jun-25 03:33N 51°20' E 004°20'0 0.0
2016-Jun-25 02:30N 51°19' E 004°20'0 0.0
2016-Jun-25 01:33N 51°19' E 004°20'0 0.0
2016-Jun-25 00:33N 51°20' E 004°20'0 0.0
2016-Jun-24 23:30N 51°19' E 004°20'1 1.1
2016-Jun-24 22:33N 51°20' E 004°18'1 1.1
2016-Jun-24 21:31N 51°21' E 004°17'1 1.1
2016-Jun-24 20:33N 51°21' E 004°15'7 6.8
2016-Jun-24 19:33N 51°22' E 004°05'6 5.9
2016-Jun-24 18:33N 51°22' E 003°55'10 9.9
2016-Jun-24 17:34N 51°26' E 003°41'1010.3
2016-Jun-24 16:33N 51°31' E 003°26'1313.3
2016-Jun-24 15:33N 51°43' E 003°16'7 7.4
2016-Jun-24 14:34N 51°50' E 003°12'1 0.5
2016-Jun-24 13:34N 51°49' E 003°12'1 1.3
2016-Jun-24 12:33N 51°49' E 003°14'1 0.8
2016-Jun-24 11:27N 51°49' E 003°16'1 0.8
2016-Jun-24 10:25N 51°49' E 003°17'2 1.8
2016-Jun-24 09:33N 51°51' E 003°18'1414.0
2016-Jun-24 08:33N 52°02' E 003°30'1515.4
2016-Jun-24 07:33N 52°03' E 003°55'8 2.6
2016-Jun-24 04:33N 51°58' E 004°04'0 0.0
2016-Jun-24 03:33N 51°58' E 004°04'0 0.0
2016-Jun-24 02:33N 51°58' E 004°04'0 0.0
2016-Jun-24 01:33N 51°58' E 004°04'0 0.0
2016-Jun-24 00:33N 51°58' E 004°04'0 0.0
2016-Jun-23 23:33N 51°58' E 004°04'0 0.0
2016-Jun-23 22:33N 51°58' E 004°04'0 0.0
2016-Jun-23 21:33N 51°58' E 004°04'0 0.0
2016-Jun-23 20:33N 51°58' E 004°04'0 0.0
2016-Jun-23 19:33N 51°58' E 004°04'0 0.0
2016-Jun-23 18:33N 51°58' E 004°04'0 0.0
2016-Jun-23 17:33N 51°58' E 004°04'0 0.0
2016-Jun-23 16:33N 51°58' E 004°04'0 0.4
2016-Jun-23 15:33N 51°58' E 004°04'1010.2
2016-Jun-23 14:34N 52°00' E 003°48'3716.2
2016-Jun-23 12:16N 51°53' E 002°49'1318.1
2016-Jun-23 11:33N 51°53' E 002°28'1716.8
2016-Jun-23 10:33N 51°51' E 002°01'1615.5
2016-Jun-23 09:33N 51°52' E 001°36'1110.7
2016-Jun-23 08:34N 51°55' E 001°20'3 2.8
2016-Jun-23 07:33N 51°58' E 001°17'0 0.0
2016-Jun-23 05:33N 51°58' E 001°17'0 0.0
2016-Jun-23 04:33N 51°58' E 001°17'0 0.0
2016-Jun-23 03:33N 51°58' E 001°17'0 0.0
2016-Jun-23 02:33N 51°58' E 001°17'0 0.0
2016-Jun-23 01:33N 51°58' E 001°17'0 0.0
2016-Jun-23 00:33N 51°58' E 001°17'0 0.0
2016-Jun-22 23:33N 51°58' E 001°17'0 0.0
2016-Jun-22 22:33N 51°58' E 001°17'0 0.0
2016-Jun-22 21:33N 51°58' E 001°17'0 0.0
2016-Jun-22 20:33N 51°58' E 001°17'0 0.0
2016-Jun-22 19:33N 51°58' E 001°17'0 0.0
2016-Jun-22 18:33N 51°58' E 001°17'0 0.0
2016-Jun-22 17:33N 51°58' E 001°17'0 0.0
2016-Jun-22 16:33N 51°58' E 001°17'0 0.0
2016-Jun-22 15:33N 51°58' E 001°17'0 0.0
2016-Jun-22 14:33N 51°58' E 001°17'0 0.0
2016-Jun-22 13:33N 51°58' E 001°17'1 1.4
2016-Jun-22 12:33N 51°57' E 001°19'10 9.9
2016-Jun-22 11:34N 51°53' E 001°34'6 6.1
2016-Jun-22 10:33N 51°51' E 001°43'2 1.5
2016-Jun-22 09:33N 51°53' E 001°43'1 0.8
2016-Jun-22 08:33N 51°52' E 001°43'1 1.0
2016-Jun-22 07:33N 51°53' E 001°43'0 0.1
2016-Jun-22 06:33N 51°53' E 001°43'2 1.5
2016-Jun-22 05:33N 51°54' E 001°45'1 1.1
2016-Jun-22 04:33N 51°53' E 001°44'0 0.2
2016-Jun-22 03:33N 51°53' E 001°44'3 2.8
2016-Jun-22 02:33N 51°51' E 001°47'1515.0
2016-Jun-22 01:33N 51°36' E 001°50'1414.1
2016-Jun-22 00:33N 51°25' E 002°04'1514.7
2016-Jun-21 23:34N 51°13' E 001°50'1716.9
2016-Jun-21 22:34N 51°01' E 001°32'1615.5
2016-Jun-21 21:33N 50°46' E 001°22'1715.5
2016-Jun-21 20:28N 50°34' E 001°04'1715.7
2016-Jun-21 19:21N 50°27' E 000°39'1315.8
2016-Jun-21 18:33N 50°24' E 000°20'1515.2
2016-Jun-21 17:33N 50°20' W 000°03'1515.1
2016-Jun-21 16:33N 50°15' W 000°26'1515.3
2016-Jun-21 15:33N 50°11' W 000°48'1714.6
2016-Jun-21 14:24N 50°06' W 001°14'2913.9
2016-Jun-21 12:18N 49°58' W 001°57'2715.0
2016-Jun-21 10:32N 49°51' W 002°37'1615.9
2016-Jun-21 09:33N 49°45' W 002°59'1616.1
2016-Jun-21 08:33N 49°38' W 003°21'2016.0
2016-Jun-21 07:18N 49°28' W 003°49'1316.2
2016-Jun-21 06:30N 49°22' W 004°06'3316.4
2016-Jun-21 04:31N 49°05' W 004°49'2016.4
2016-Jun-21 03:17N 48°55' W 005°15'1216.2
2016-Jun-21 02:33N 48°49' W 005°31'  

Dump ship's entire track history